Dallas Fort Worth International Airport
KDFW : rendu visible

Aérodrome :











RETROUVEZ-NOUS SUR...

 
LOGIN :

S'inscrire | Disclaimer

   EN    FR    IT 

 









Légende :    VFR   VFR Marginal   IFR   IFR Intensif   IFR Très Intensif
Visi : 
Plafond : 
>= 8 km
>= 3000ft
5 à 8 km
1000 à 3000 ft
1500m à 5 km
500 à 1000 ft
800 à 1500m
200 à 500 ft
< 800m
< 200 ft
Symboles :   Orages  Brouillard  Fortes neiges  Fortes précipitations  Vent > 20 kt






- Altitude de l'aérodrome : 607 ft
- Code IATA : DFW


KDFW - Dallas Fort Worth International

DERNIER METAR :
  • 100853Z 02010KT 6SM RA BR OVC070 03/01 A3013 RMK AO2 SLP202 P0012 60032 T00280006 51012

METARs EXPIRÉS :
  • 100753Z 01011KT 7SM RA SCT020 BKN049 OVC075 03/01 A3013 RMK AO2 SLP199 P0010 T00280006
  • 100653Z 36014KT 5SM RA BR BKN013 BKN021 OVC049 03/01 A3012 RMK AO2 SLP197 P0010 T00330011

TAF KDFW
Valide du 10 à 08h jusqu'au 11 à 12h UTC


100808Z 1008/1112 36012KT 6SM RA SCT015 OVC050
FM101000 01014KT 5SM RA OVC015
TEMPO 1012/1015 2SM -RASN OVC009
FM101500 36010KT P6SM SCT025 BKN060
FM110000 02005KT P6SM FEW080 SCT300



MET'MAP, la Météo Aéronautique d'un coup d'oeil ! - Copyright ORBIFLY Décembre 2007 - Disclaimer

ORBIFLY MET'MAP TEAM :

Programmation & Développement : Alexandra Zaïnal
Sur une idée originale de : Baudouin d'Aumeries
Assistance à la programmation : Marc-Olivier Méhu
Soutien technique & logistique : Manuel Goepfert

Contact : metmap@orbifly.com




SOURCES & CREDITS :

   NOAA       Earth
Advisory